Tuesday, September 1, 2015, 11:06 AM CDT
Back to Local

KHDC, Hammond, Hammond Municipal Airport

Location: Hammond, LA, United States Lat: 30.521
Local Time: 11:06 AM CDT (16:06 GMT) Lon: -90.418
Time Zone: US/Central Elev: 42 ft

Show me the last for .
Show Coded

Time T Td Feel RH Dir Speed Gust Alt SLP Vis Weather Sky Remarks
2015-09-01 10:35 88 68 92 52 - Calm - 30.11 - 10 CLR None
2015-09-01 10:15 86 70 91 58 140° 5 - 30.12 - 10 CLR None
2015-09-01 09:55 86 70 91 58 40° 5 - 30.11 - 10 CLR None
2015-09-01 09:35 84 70 89 62 120° 3 - 30.10 - 10 CLR None
2015-09-01 09:15 82 70 87 65 - Calm - 30.11 - 10 CLR None
2015-09-01 08:55 81 70 85 69 - Calm - 30.10 - 10 CLR None
2015-09-01 08:35 79 70 83 74 40° 3 - 30.09 - 10 CLR None
2015-09-01 08:15 77 70 81 78 30° 3 - 30.08 - 10 CLR None
2015-09-01 07:55 73 70 77 88 - Calm - 30.08 - 5 BR CLR None
2015-09-01 07:35 72 68 76 88 - Calm - 30.07 - 4 BR CLR None
2015-09-01 07:15 70 68 - 94 - Calm - 30.07 - 5 BR CLR None
2015-09-01 06:55 70 66 - 88 - Calm - 30.07 - 3 BR CLR None
2015-09-01 06:35 70 68 - 94 - Calm - 30.06 - 4 BR CLR None
2015-09-01 06:15 70 66 - 88 - Calm - 30.07 - 5 BR CLR None
2015-09-01 05:55 70 66 - 88 - Calm - 30.06 - 5 BR CLR None
2015-09-01 05:35 70 68 - 94 - Calm - 30.06 - 5 BR CLR None
2015-09-01 05:15 70 68 - 94 - Calm - 30.06 - 7 CLR None
2015-09-01 04:55 72 68 76 88 - Calm - 30.06 - 3 BR CLR None
2015-09-01 04:35 72 68 76 88 - Calm - 30.06 - 5 BR CLR None
2015-09-01 04:15 72 70 76 94 - Calm - 30.06 - 5 BR CLR None
2015-09-01 03:55 72 70 76 94 - Calm - 30.06 - 5 BR CLR None
2015-09-01 03:35 72 68 76 88 - Calm - 30.06 - 5 BR CLR None
2015-09-01 03:15 72 68 76 88 - Calm - 30.06 - 5 BR CLR None
2015-09-01 02:55 73 70 77 88 - Calm - 30.06 - 7 CLR None
2015-09-01 02:35 73 70 77 88 - Calm - 30.06 - 7 CLR None
2015-09-01 02:15 73 70 77 88 - Calm - 30.07 - 5 BR CLR None
2015-09-01 01:55 73 70 77 88 - Calm - 30.07 - 7 CLR None
2015-09-01 01:35 73 70 77 88 - Calm - 30.07 - 7 CLR None
2015-09-01 01:15 73 70 77 88 - Calm - 30.07 - 7 CLR None
2015-09-01 00:55 73 68 77 83 - Calm - 30.07 - 10 CLR None
2015-09-01 00:35 73 68 77 83 - Calm - 30.06 - 10 CLR None
2015-09-01 00:15 73 68 77 83 - Calm - 30.06 - 10 CLR None
2015-08-31 23:55 75 70 79 83 - Calm - 30.06 - 10 CLR None
2015-08-31 23:35 75 70 79 83 - Calm - 30.06 - 10 CLR None
2015-08-31 23:15 75 70 79 83 - Calm - 30.06 - 10 CLR None
2015-08-31 22:55 75 68 79 78 - Calm - 30.06 - 10 CLR None
2015-08-31 22:35 77 70 81 78 - Calm - 30.06 - 10 CLR None
2015-08-31 22:15 79 70 83 74 - Calm - 30.05 - 10 CLR None
2015-08-31 21:55 79 70 83 74 - Calm - 30.06 - 10 SCT055 None
2015-08-31 21:35 79 70 83 74 - Calm - 30.06 - 10 BKN055 None
2015-08-31 21:15 79 68 82 69 - Calm - 30.05 - 10 SCT055 None
2015-08-31 20:35 82 68 86 61 - Calm - 30.04 - 10 CLR None
2015-08-31 20:15 81 68 84 65 - Calm - 30.04 - 10 CLR None
2015-08-31 19:55 82 68 86 61 - Calm - 30.03 - 10 CLR None
2015-08-31 19:35 82 68 86 61 - Calm - 30.03 - 10 CLR None
2015-08-31 19:15 86 66 89 51 - Calm - 30.03 - 10 CLR None
2015-08-31 18:55 86 66 89 51 - Calm - 30.02 - 10 CLR None
2015-08-31 18:35 88 64 90 45 250° 3 - 30.02 - 10 CLR None
2015-08-31 18:15 88 64 90 45 260° 6 - 30.03 - 10 CLR None
2015-08-31 17:55 91 64 94 41 270° 7 - 30.03 - 10 CLR None
2015-08-31 17:35 91 64 94 41 250° 7 - 30.03 - 10 CLR None
2015-08-31 17:15 91 66 96 43 200° 7 - 30.02 - 10 CLR None
2015-08-31 16:55 88 66 91 48 210° 9 - 30.02 - 10 CLR None
2015-08-31 16:35 90 66 93 46 200° 10 - 30.02 - 10 SCT060 SCT070 None
2015-08-31 16:15 90 68 94 49 210° 8 - 30.03 - 10 SCT046 BKN060 BKN070 None
2015-08-31 15:55 90 68 94 49 190° 8 - 30.02 - 10 SCT046 SCT065 SCT080 None
2015-08-31 15:35 91 68 97 46 240° 6 - 30.03 - 10 SCT048 BKN065 BKN080 None
2015-08-31 15:15 91 66 96 43 210° 9 - 30.04 - 10 OVC060 None
2015-08-31 14:55 93 59 - 32 - Calm - 30.05 - 10 BKN060 None
2015-08-31 14:35 93 59 - 32 330° 5 - 30.05 - 10 CLR None
2015-08-31 14:15 93 59 - 32 - Calm - 30.05 - 10 SCT060 SCT075 SCT090 None
2015-08-31 13:35 93 61 - 34 - Calm - 30.05 - 10 SCT055 BKN075 BKN095 None
2015-08-31 13:15 91 61 - 36 330° 5 - 30.06 - 10 SCT055 SCT075 SCT085 None
2015-08-31 12:55 95 63 - 34 110° 3 - 30.07 - 10 SCT048 SCT080 None
2015-08-31 12:35 91 63 - 38 - Calm - 30.08 - 10 BKN048 BKN060 None
2015-08-31 12:15 91 63 - 38 - Calm - 30.08 - 10 BKN048 OVC060 None
2015-08-31 11:55 93 63 - 36 - Calm - 30.09 - 10 SCT045 BKN060 None
2015-08-31 11:35 91 64 94 41 - Calm - 30.09 - 10 SCT041 BKN049 None
2015-08-31 11:15 91 66 96 43 - Calm - 30.09 - 10 SCT039 None

Support USWX by starting your Amazon purchase here.